sensor_id;sensor_type;location;lat;lon;timestamp;pressure;altitude;pressure_sealevel;temperature
20103;BMP180;10210;52.284;9.892;2023-08-07T00:00:43;99617.00;;;21.50
20103;BMP180;10210;52.284;9.892;2023-08-07T00:03:09;99610.00;;;21.50
20103;BMP180;10210;52.284;9.892;2023-08-07T00:05:36;99613.00;;;21.50
20103;BMP180;10210;52.284;9.892;2023-08-07T00:08:02;99621.00;;;21.50
20103;BMP180;10210;52.284;9.892;2023-08-07T00:10:28;99618.00;;;21.50
20103;BMP180;10210;52.284;9.892;2023-08-07T00:12:54;99614.00;;;21.40
20103;BMP180;10210;52.284;9.892;2023-08-07T00:15:19;99630.00;;;21.40
20103;BMP180;10210;52.284;9.892;2023-08-07T00:17:45;99629.00;;;21.40
20103;BMP180;10210;52.284;9.892;2023-08-07T00:20:11;99623.00;;;21.40
20103;BMP180;10210;52.284;9.892;2023-08-07T00:22:37;99629.00;;;21.40
20103;BMP180;10210;52.284;9.892;2023-08-07T00:25:03;99623.00;;;21.40
20103;BMP180;10210;52.284;9.892;2023-08-07T00:27:28;99625.00;;;21.40
20103;BMP180;10210;52.284;9.892;2023-08-07T00:29:55;99621.00;;;21.40
20103;BMP180;10210;52.284;9.892;2023-08-07T00:32:20;99630.00;;;21.40
20103;BMP180;10210;52.284;9.892;2023-08-07T00:34:46;99630.00;;;21.40
20103;BMP180;10210;52.284;9.892;2023-08-07T00:37:12;99632.00;;;21.40
20103;BMP180;10210;52.284;9.892;2023-08-07T00:39:37;99630.00;;;21.40
20103;BMP180;10210;52.284;9.892;2023-08-07T00:42:03;99626.00;;;21.40
20103;BMP180;10210;52.284;9.892;2023-08-07T00:44:29;99630.00;;;21.40
20103;BMP180;10210;52.284;9.892;2023-08-07T00:46:55;99633.00;;;21.40
20103;BMP180;10210;52.284;9.892;2023-08-07T00:49:21;99621.00;;;21.40
20103;BMP180;10210;52.284;9.892;2023-08-07T00:51:47;99633.00;;;21.30
20103;BMP180;10210;52.284;9.892;2023-08-07T00:54:18;99637.00;;;21.30
20103;BMP180;10210;52.284;9.892;2023-08-07T00:56:44;99635.00;;;21.30
20103;BMP180;10210;52.284;9.892;2023-08-07T00:59:10;99633.00;;;21.20
20103;BMP180;10210;52.284;9.892;2023-08-07T01:01:36;99629.00;;;21.20
20103;BMP180;10210;52.284;9.892;2023-08-07T01:04:02;99624.00;;;21.10
20103;BMP180;10210;52.284;9.892;2023-08-07T01:06:28;99626.00;;;21.10
20103;BMP180;10210;52.284;9.892;2023-08-07T01:08:54;99626.00;;;21.10
20103;BMP180;10210;52.284;9.892;2023-08-07T01:11:48;99630.00;;;21.00
20103;BMP180;10210;52.284;9.892;2023-08-07T01:14:37;99632.00;;;20.90
20103;BMP180;10210;52.284;9.892;2023-08-07T01:17:11;99639.00;;;20.90
20103;BMP180;10210;52.284;9.892;2023-08-07T01:19:38;99643.00;;;20.90
20103;BMP180;10210;52.284;9.892;2023-08-07T01:22:12;99635.00;;;20.90
20103;BMP180;10210;52.284;9.892;2023-08-07T01:24:41;99626.00;;;20.90
20103;BMP180;10210;52.284;9.892;2023-08-07T01:30:23;99639.00;;;20.70
20103;BMP180;10210;52.284;9.892;2023-08-07T01:33:16;99623.00;;;20.70
20103;BMP180;10210;52.284;9.892;2023-08-07T01:35:53;99623.00;;;20.70
20103;BMP180;10210;52.284;9.892;2023-08-07T01:38:24;99628.00;;;20.70
20103;BMP180;10210;52.284;9.892;2023-08-07T01:40:51;99629.00;;;20.70
20103;BMP180;10210;52.284;9.892;2023-08-07T01:43:18;99631.00;;;20.70
20103;BMP180;10210;52.284;9.892;2023-08-07T01:45:45;99631.00;;;20.70
20103;BMP180;10210;52.284;9.892;2023-08-07T01:48:11;99633.00;;;20.70
20103;BMP180;10210;52.284;9.892;2023-08-07T01:50:38;99630.00;;;20.70
20103;BMP180;10210;52.284;9.892;2023-08-07T01:53:05;99627.00;;;20.60
20103;BMP180;10210;52.284;9.892;2023-08-07T01:55:31;99625.00;;;20.60
20103;BMP180;10210;52.284;9.892;2023-08-07T01:57:57;99619.00;;;20.60
20103;BMP180;10210;52.284;9.892;2023-08-07T02:00:23;99626.00;;;20.60
20103;BMP180;10210;52.284;9.892;2023-08-07T02:02:49;99621.00;;;20.60
20103;BMP180;10210;52.284;9.892;2023-08-07T02:05:15;99617.00;;;20.60
20103;BMP180;10210;52.284;9.892;2023-08-07T02:07:42;99616.00;;;20.60
20103;BMP180;10210;52.284;9.892;2023-08-07T02:10:08;99614.00;;;20.60
20103;BMP180;10210;52.284;9.892;2023-08-07T02:12:34;99611.00;;;20.50
20103;BMP180;10210;52.284;9.892;2023-08-07T02:15:00;99607.00;;;20.50
20103;BMP180;10210;52.284;9.892;2023-08-07T02:17:28;99613.00;;;20.50
20103;BMP180;10210;52.284;9.892;2023-08-07T02:19:56;99616.00;;;20.50
20103;BMP180;10210;52.284;9.892;2023-08-07T02:22:22;99613.00;;;20.40
20103;BMP180;10210;52.284;9.892;2023-08-07T02:24:48;99622.00;;;20.40
20103;BMP180;10210;52.284;9.892;2023-08-07T02:27:14;99610.00;;;20.40
20103;BMP180;10210;52.284;9.892;2023-08-07T02:29:39;99605.00;;;20.40
20103;BMP180;10210;52.284;9.892;2023-08-07T02:32:05;99606.00;;;20.40
20103;BMP180;10210;52.284;9.892;2023-08-07T02:34:32;99607.00;;;20.30
20103;BMP180;10210;52.284;9.892;2023-08-07T02:36:58;99617.00;;;20.30
20103;BMP180;10210;52.284;9.892;2023-08-07T02:39:25;99609.00;;;20.30
20103;BMP180;10210;52.284;9.892;2023-08-07T02:41:51;99619.00;;;20.30
20103;BMP180;10210;52.284;9.892;2023-08-07T02:44:16;99622.00;;;20.30
20103;BMP180;10210;52.284;9.892;2023-08-07T02:46:46;99605.00;;;20.30
20103;BMP180;10210;52.284;9.892;2023-08-07T02:49:12;99617.00;;;20.30
20103;BMP180;10210;52.284;9.892;2023-08-07T02:51:37;99620.00;;;20.30
20103;BMP180;10210;52.284;9.892;2023-08-07T02:54:03;99618.00;;;20.20
20103;BMP180;10210;52.284;9.892;2023-08-07T02:56:28;99616.00;;;20.20
20103;BMP180;10210;52.284;9.892;2023-08-07T02:58:54;99626.00;;;20.20
20103;BMP180;10210;52.284;9.892;2023-08-07T03:01:20;99622.00;;;20.20
20103;BMP180;10210;52.284;9.892;2023-08-07T03:03:46;99619.00;;;20.20
20103;BMP180;10210;52.284;9.892;2023-08-07T03:06:12;99620.00;;;20.20
20103;BMP180;10210;52.284;9.892;2023-08-07T03:08:38;99626.00;;;20.20
20103;BMP180;10210;52.284;9.892;2023-08-07T03:11:04;99623.00;;;20.20
20103;BMP180;10210;52.284;9.892;2023-08-07T03:13:29;99621.00;;;20.20
20103;BMP180;10210;52.284;9.892;2023-08-07T03:16:05;99631.00;;;20.20
20103;BMP180;10210;52.284;9.892;2023-08-07T03:18:33;99632.00;;;20.20
20103;BMP180;10210;52.284;9.892;2023-08-07T03:20:59;99625.00;;;20.10
20103;BMP180;10210;52.284;9.892;2023-08-07T03:23:26;99632.00;;;20.10
20103;BMP180;10210;52.284;9.892;2023-08-07T03:26:09;99637.00;;;20.10
20103;BMP180;10210;52.284;9.892;2023-08-07T03:28:36;99639.00;;;20.10
20103;BMP180;10210;52.284;9.892;2023-08-07T03:31:02;99639.00;;;20.10
20103;BMP180;10210;52.284;9.892;2023-08-07T03:33:28;99643.00;;;20.10
20103;BMP180;10210;52.284;9.892;2023-08-07T03:35:54;99636.00;;;20.10
20103;BMP180;10210;52.284;9.892;2023-08-07T03:38:19;99638.00;;;20.10
20103;BMP180;10210;52.284;9.892;2023-08-07T03:40:45;99638.00;;;20.10
20103;BMP180;10210;52.284;9.892;2023-08-07T03:43:11;99642.00;;;20.10
20103;BMP180;10210;52.284;9.892;2023-08-07T03:45:37;99650.00;;;20.10
20103;BMP180;10210;52.284;9.892;2023-08-07T03:48:03;99642.00;;;20.10
20103;BMP180;10210;52.284;9.892;2023-08-07T03:50:29;99650.00;;;20.10
20103;BMP180;10210;52.284;9.892;2023-08-07T03:52:56;99660.00;;;20.10
20103;BMP180;10210;52.284;9.892;2023-08-07T03:55:22;99662.00;;;20.10
20103;BMP180;10210;52.284;9.892;2023-08-07T03:57:48;99649.00;;;20.10
20103;BMP180;10210;52.284;9.892;2023-08-07T04:00:14;99655.00;;;20.10
20103;BMP180;10210;52.284;9.892;2023-08-07T04:02:40;99644.00;;;20.10
20103;BMP180;10210;52.284;9.892;2023-08-07T04:05:06;99650.00;;;20.10
20103;BMP180;10210;52.284;9.892;2023-08-07T04:07:32;99647.00;;;20.00
20103;BMP180;10210;52.284;9.892;2023-08-07T04:09:58;99651.00;;;20.00
20103;BMP180;10210;52.284;9.892;2023-08-07T04:12:24;99648.00;;;20.00
20103;BMP180;10210;52.284;9.892;2023-08-07T04:14:49;99648.00;;;20.00
20103;BMP180;10210;52.284;9.892;2023-08-07T04:17:16;99664.00;;;20.00
20103;BMP180;10210;52.284;9.892;2023-08-07T04:19:41;99651.00;;;20.00
20103;BMP180;10210;52.284;9.892;2023-08-07T04:22:07;99661.00;;;20.10
20103;BMP180;10210;52.284;9.892;2023-08-07T04:24:33;99664.00;;;20.10
20103;BMP180;10210;52.284;9.892;2023-08-07T04:26:58;99671.00;;;20.10
20103;BMP180;10210;52.284;9.892;2023-08-07T04:29:24;99652.00;;;20.10
20103;BMP180;10210;52.284;9.892;2023-08-07T04:31:50;99664.00;;;20.10
20103;BMP180;10210;52.284;9.892;2023-08-07T04:34:16;99671.00;;;20.10
20103;BMP180;10210;52.284;9.892;2023-08-07T04:36:42;99665.00;;;20.00
20103;BMP180;10210;52.284;9.892;2023-08-07T04:39:07;99677.00;;;20.10
20103;BMP180;10210;52.284;9.892;2023-08-07T04:41:34;99673.00;;;20.10
20103;BMP180;10210;52.284;9.892;2023-08-07T04:43:59;99675.00;;;20.00
20103;BMP180;10210;52.284;9.892;2023-08-07T04:46:25;99681.00;;;20.10
20103;BMP180;10210;52.284;9.892;2023-08-07T04:48:51;99682.00;;;20.10
20103;BMP180;10210;52.284;9.892;2023-08-07T04:51:16;99685.00;;;20.10
20103;BMP180;10210;52.284;9.892;2023-08-07T04:53:42;99675.00;;;20.10
20103;BMP180;10210;52.284;9.892;2023-08-07T04:56:08;99684.00;;;20.00
20103;BMP180;10210;52.284;9.892;2023-08-07T04:58:33;99677.00;;;20.00
20103;BMP180;10210;52.284;9.892;2023-08-07T05:01:00;99686.00;;;20.00
20103;BMP180;10210;52.284;9.892;2023-08-07T05:03:26;99685.00;;;20.00
20103;BMP180;10210;52.284;9.892;2023-08-07T05:06:02;99681.00;;;20.00
20103;BMP180;10210;52.284;9.892;2023-08-07T05:08:28;99681.00;;;20.00
20103;BMP180;10210;52.284;9.892;2023-08-07T05:10:54;99681.00;;;20.00
20103;BMP180;10210;52.284;9.892;2023-08-07T05:13:19;99692.00;;;20.00
20103;BMP180;10210;52.284;9.892;2023-08-07T05:15:48;99695.00;;;20.00
20103;BMP180;10210;52.284;9.892;2023-08-07T05:18:15;99694.00;;;20.00
20103;BMP180;10210;52.284;9.892;2023-08-07T05:20:42;99699.00;;;20.00
20103;BMP180;10210;52.284;9.892;2023-08-07T05:23:08;99694.00;;;20.10
20103;BMP180;10210;52.284;9.892;2023-08-07T05:25:34;99694.00;;;20.10
20103;BMP180;10210;52.284;9.892;2023-08-07T05:27:59;99698.00;;;20.10
20103;BMP180;10210;52.284;9.892;2023-08-07T05:30:25;99691.00;;;20.10
20103;BMP180;10210;52.284;9.892;2023-08-07T05:32:51;99699.00;;;20.10
20103;BMP180;10210;52.284;9.892;2023-08-07T05:35:16;99698.00;;;20.10
20103;BMP180;10210;52.284;9.892;2023-08-07T05:37:42;99709.00;;;20.10
20103;BMP180;10210;52.284;9.892;2023-08-07T05:40:08;99703.00;;;20.00
20103;BMP180;10210;52.284;9.892;2023-08-07T05:42:37;99702.00;;;20.10
20103;BMP180;10210;52.284;9.892;2023-08-07T05:45:04;99710.00;;;20.10
20103;BMP180;10210;52.284;9.892;2023-08-07T05:47:29;99713.00;;;20.00
20103;BMP180;10210;52.284;9.892;2023-08-07T05:49:55;99718.00;;;20.00
20103;BMP180;10210;52.284;9.892;2023-08-07T05:52:21;99709.00;;;20.00
20103;BMP180;10210;52.284;9.892;2023-08-07T05:54:47;99707.00;;;20.10
20103;BMP180;10210;52.284;9.892;2023-08-07T05:57:13;99699.00;;;20.10
20103;BMP180;10210;52.284;9.892;2023-08-07T05:59:38;99707.00;;;20.10
20103;BMP180;10210;52.284;9.892;2023-08-07T06:02:06;99706.00;;;20.10
20103;BMP180;10210;52.284;9.892;2023-08-07T06:04:32;99705.00;;;20.10
20103;BMP180;10210;52.284;9.892;2023-08-07T06:06:57;99712.00;;;20.20
20103;BMP180;10210;52.284;9.892;2023-08-07T06:09:24;99716.00;;;20.20
20103;BMP180;10210;52.284;9.892;2023-08-07T06:11:49;99712.00;;;20.20
20103;BMP180;10210;52.284;9.892;2023-08-07T06:14:15;99714.00;;;20.20
20103;BMP180;10210;52.284;9.892;2023-08-07T06:16:40;99722.00;;;20.20
20103;BMP180;10210;52.284;9.892;2023-08-07T06:19:06;99713.00;;;20.20
20103;BMP180;10210;52.284;9.892;2023-08-07T06:21:32;99719.00;;;20.20
20103;BMP180;10210;52.284;9.892;2023-08-07T06:23:58;99726.00;;;20.20
20103;BMP180;10210;52.284;9.892;2023-08-07T06:26:24;99722.00;;;20.20
20103;BMP180;10210;52.284;9.892;2023-08-07T06:28:49;99724.00;;;20.20
20103;BMP180;10210;52.284;9.892;2023-08-07T06:31:15;99724.00;;;20.20
20103;BMP180;10210;52.284;9.892;2023-08-07T06:33:41;99722.00;;;20.20
20103;BMP180;10210;52.284;9.892;2023-08-07T06:36:08;99731.00;;;20.30
20103;BMP180;10210;52.284;9.892;2023-08-07T06:38:36;99732.00;;;20.30
20103;BMP180;10210;52.284;9.892;2023-08-07T06:41:02;99739.00;;;20.30
20103;BMP180;10210;52.284;9.892;2023-08-07T06:43:28;99721.00;;;20.30
20103;BMP180;10210;52.284;9.892;2023-08-07T06:45:56;99730.00;;;20.30
20103;BMP180;10210;52.284;9.892;2023-08-07T06:48:22;99734.00;;;20.30
20103;BMP180;10210;52.284;9.892;2023-08-07T06:50:51;99728.00;;;20.30
20103;BMP180;10210;52.284;9.892;2023-08-07T06:53:19;99727.00;;;20.30
20103;BMP180;10210;52.284;9.892;2023-08-07T06:55:45;99726.00;;;20.40
20103;BMP180;10210;52.284;9.892;2023-08-07T06:58:12;99731.00;;;20.40
20103;BMP180;10210;52.284;9.892;2023-08-07T07:00:38;99727.00;;;20.40
20103;BMP180;10210;52.284;9.892;2023-08-07T07:03:05;99730.00;;;21.10
20103;BMP180;10210;52.284;9.892;2023-08-07T07:05:33;99730.00;;;20.70
20103;BMP180;10210;52.284;9.892;2023-08-07T07:07:59;99743.00;;;20.60
20103;BMP180;10210;52.284;9.892;2023-08-07T07:10:25;99732.00;;;20.60
20103;BMP180;10210;52.284;9.892;2023-08-07T07:12:51;99746.00;;;20.50
20103;BMP180;10210;52.284;9.892;2023-08-07T07:15:17;99739.00;;;20.40
20103;BMP180;10210;52.284;9.892;2023-08-07T07:17:44;99741.00;;;20.40
20103;BMP180;10210;52.284;9.892;2023-08-07T07:20:12;99745.00;;;20.40
20103;BMP180;10210;52.284;9.892;2023-08-07T07:22:40;99754.00;;;20.30
20103;BMP180;10210;52.284;9.892;2023-08-07T07:25:06;99753.00;;;20.30
20103;BMP180;10210;52.284;9.892;2023-08-07T07:27:32;99752.00;;;20.30
20103;BMP180;10210;52.284;9.892;2023-08-07T07:29:58;99752.00;;;20.30
20103;BMP180;10210;52.284;9.892;2023-08-07T07:32:23;99757.00;;;20.30
20103;BMP180;10210;52.284;9.892;2023-08-07T07:34:51;99752.00;;;20.40
20103;BMP180;10210;52.284;9.892;2023-08-07T07:37:17;99759.00;;;20.40
20103;BMP180;10210;52.284;9.892;2023-08-07T07:39:43;99762.00;;;20.50
20103;BMP180;10210;52.284;9.892;2023-08-07T07:42:09;99767.00;;;20.60
20103;BMP180;10210;52.284;9.892;2023-08-07T07:44:34;99769.00;;;20.70
20103;BMP180;10210;52.284;9.892;2023-08-07T07:47:02;99764.00;;;20.80
20103;BMP180;10210;52.284;9.892;2023-08-07T07:49:28;99759.00;;;20.90
20103;BMP180;10210;52.284;9.892;2023-08-07T07:51:53;99767.00;;;21.00
20103;BMP180;10210;52.284;9.892;2023-08-07T07:54:19;99760.00;;;21.10
20103;BMP180;10210;52.284;9.892;2023-08-07T07:56:45;99778.00;;;21.20
20103;BMP180;10210;52.284;9.892;2023-08-07T07:59:11;99783.00;;;21.30
20103;BMP180;10210;52.284;9.892;2023-08-07T08:01:37;99787.00;;;21.40
20103;BMP180;10210;52.284;9.892;2023-08-07T08:04:03;99780.00;;;21.40
20103;BMP180;10210;52.284;9.892;2023-08-07T08:06:29;99784.00;;;21.50
20103;BMP180;10210;52.284;9.892;2023-08-07T08:08:56;99779.00;;;21.60
20103;BMP180;10210;52.284;9.892;2023-08-07T08:11:23;99779.00;;;21.60
20103;BMP180;10210;52.284;9.892;2023-08-07T08:13:49;99783.00;;;21.80
20103;BMP180;10210;52.284;9.892;2023-08-07T08:16:15;99784.00;;;21.90
20103;BMP180;10210;52.284;9.892;2023-08-07T08:18:41;99796.00;;;21.90
20103;BMP180;10210;52.284;9.892;2023-08-07T08:21:07;99788.00;;;21.90
20103;BMP180;10210;52.284;9.892;2023-08-07T08:23:32;99790.00;;;21.90
20103;BMP180;10210;52.284;9.892;2023-08-07T08:25:58;99790.00;;;21.90
20103;BMP180;10210;52.284;9.892;2023-08-07T08:28:24;99794.00;;;21.80
20103;BMP180;10210;52.284;9.892;2023-08-07T08:30:49;99788.00;;;21.80
20103;BMP180;10210;52.284;9.892;2023-08-07T08:33:15;99797.00;;;21.80
20103;BMP180;10210;52.284;9.892;2023-08-07T08:35:41;99800.00;;;21.80
20103;BMP180;10210;52.284;9.892;2023-08-07T08:38:07;99794.00;;;21.90
20103;BMP180;10210;52.284;9.892;2023-08-07T08:40:35;99796.00;;;21.90
20103;BMP180;10210;52.284;9.892;2023-08-07T08:43:05;99799.00;;;21.80
20103;BMP180;10210;52.284;9.892;2023-08-07T08:45:32;99803.00;;;21.80
20103;BMP180;10210;52.284;9.892;2023-08-07T08:48:03;99802.00;;;21.90
20103;BMP180;10210;52.284;9.892;2023-08-07T08:50:30;99819.00;;;21.90
20103;BMP180;10210;52.284;9.892;2023-08-07T08:52:57;99817.00;;;22.00
20103;BMP180;10210;52.284;9.892;2023-08-07T08:55:24;99822.00;;;22.00
20103;BMP180;10210;52.284;9.892;2023-08-07T08:57:51;99821.00;;;22.10
20103;BMP180;10210;52.284;9.892;2023-08-07T09:00:18;99828.00;;;22.20
20103;BMP180;10210;52.284;9.892;2023-08-07T09:02:50;99835.00;;;22.30
20103;BMP180;10210;52.284;9.892;2023-08-07T09:05:19;99830.00;;;22.40
20103;BMP180;10210;52.284;9.892;2023-08-07T09:07:47;99826.00;;;22.60
20103;BMP180;10210;52.284;9.892;2023-08-07T09:10:14;99826.00;;;22.80
20103;BMP180;10210;52.284;9.892;2023-08-07T09:13:00;99827.00;;;22.80
20103;BMP180;10210;52.284;9.892;2023-08-07T09:15:30;99823.00;;;22.80
20103;BMP180;10210;52.284;9.892;2023-08-07T09:17:57;99858.00;;;22.80
20103;BMP180;10210;52.284;9.892;2023-08-07T09:20:25;99871.00;;;22.60
20103;BMP180;10210;52.284;9.892;2023-08-07T09:22:51;99869.00;;;22.30
20103;BMP180;10210;52.284;9.892;2023-08-07T09:25:30;99874.00;;;21.90
20103;BMP180;10210;52.284;9.892;2023-08-07T09:27:57;99858.00;;;21.60
20103;BMP180;10210;52.284;9.892;2023-08-07T09:30:27;99855.00;;;21.30
20103;BMP180;10210;52.284;9.892;2023-08-07T09:32:56;99856.00;;;21.10
20103;BMP180;10210;52.284;9.892;2023-08-07T09:35:22;99869.00;;;21.00
20103;BMP180;10210;52.284;9.892;2023-08-07T09:37:49;99861.00;;;21.00
20103;BMP180;10210;52.284;9.892;2023-08-07T09:40:15;99858.00;;;20.90
20103;BMP180;10210;52.284;9.892;2023-08-07T09:42:42;99875.00;;;21.00
20103;BMP180;10210;52.284;9.892;2023-08-07T09:45:25;99863.00;;;21.10
20103;BMP180;10210;52.284;9.892;2023-08-07T09:48:03;99864.00;;;21.20
20103;BMP180;10210;52.284;9.892;2023-08-07T09:50:30;99865.00;;;21.30
20103;BMP180;10210;52.284;9.892;2023-08-07T09:52:57;99866.00;;;21.40
20103;BMP180;10210;52.284;9.892;2023-08-07T09:55:24;99870.00;;;21.60
20103;BMP180;10210;52.284;9.892;2023-08-07T09:57:51;99862.00;;;21.70
20103;BMP180;10210;52.284;9.892;2023-08-07T10:00:18;99869.00;;;21.90
20103;BMP180;10210;52.284;9.892;2023-08-07T10:02:49;99877.00;;;22.10
20103;BMP180;10210;52.284;9.892;2023-08-07T10:05:16;99881.00;;;22.20
20103;BMP180;10210;52.284;9.892;2023-08-07T10:07:42;99876.00;;;22.20
20103;BMP180;10210;52.284;9.892;2023-08-07T10:10:09;99885.00;;;22.20
20103;BMP180;10210;52.284;9.892;2023-08-07T10:12:37;99866.00;;;22.10
20103;BMP180;10210;52.284;9.892;2023-08-07T10:15:04;99885.00;;;22.00
20103;BMP180;10210;52.284;9.892;2023-08-07T10:17:31;99879.00;;;22.10
20103;BMP180;10210;52.284;9.892;2023-08-07T10:19:57;99881.00;;;22.10
20103;BMP180;10210;52.284;9.892;2023-08-07T10:22:26;99879.00;;;22.10
20103;BMP180;10210;52.284;9.892;2023-08-07T10:24:53;99879.00;;;22.10
20103;BMP180;10210;52.284;9.892;2023-08-07T10:27:24;99891.00;;;22.00
20103;BMP180;10210;52.284;9.892;2023-08-07T10:29:54;99887.00;;;22.00
20103;BMP180;10210;52.284;9.892;2023-08-07T10:32:23;99886.00;;;22.10
20103;BMP180;10210;52.284;9.892;2023-08-07T10:34:50;99893.00;;;22.20
20103;BMP180;10210;52.284;9.892;2023-08-07T10:37:43;99899.00;;;22.20
20103;BMP180;10210;52.284;9.892;2023-08-07T10:40:12;99885.00;;;22.40
20103;BMP180;10210;52.284;9.892;2023-08-07T10:43:13;99885.00;;;22.40
20103;BMP180;10210;52.284;9.892;2023-08-07T10:45:41;99894.00;;;22.50
20103;BMP180;10210;52.284;9.892;2023-08-07T10:48:17;99896.00;;;22.60
20103;BMP180;10210;52.284;9.892;2023-08-07T10:51:04;99885.00;;;22.60
20103;BMP180;10210;52.284;9.892;2023-08-07T10:53:39;99880.00;;;22.70
20103;BMP180;10210;52.284;9.892;2023-08-07T10:56:11;99883.00;;;22.80
20103;BMP180;10210;52.284;9.892;2023-08-07T10:58:41;99884.00;;;22.80
20103;BMP180;10210;52.284;9.892;2023-08-07T11:04:14;99882.00;;;22.80
20103;BMP180;10210;52.284;9.892;2023-08-07T11:06:42;99886.00;;;22.90
20103;BMP180;10210;52.284;9.892;2023-08-07T11:09:10;99892.00;;;22.90
20103;BMP180;10210;52.284;9.892;2023-08-07T11:11:44;99896.00;;;23.00
20103;BMP180;10210;52.284;9.892;2023-08-07T11:14:18;99894.00;;;23.10
20103;BMP180;10210;52.284;9.892;2023-08-07T11:16:47;99889.00;;;23.20
20103;BMP180;10210;52.284;9.892;2023-08-07T11:19:16;99885.00;;;23.20
20103;BMP180;10210;52.284;9.892;2023-08-07T11:21:44;99885.00;;;23.30
20103;BMP180;10210;52.284;9.892;2023-08-07T11:24:13;99890.00;;;23.40
20103;BMP180;10210;52.284;9.892;2023-08-07T11:26:39;99883.00;;;23.40
20103;BMP180;10210;52.284;9.892;2023-08-07T11:29:05;99894.00;;;23.50
20103;BMP180;10210;52.284;9.892;2023-08-07T11:31:30;99892.00;;;23.60
20103;BMP180;10210;52.284;9.892;2023-08-07T11:33:58;99887.00;;;23.60
20103;BMP180;10210;52.284;9.892;2023-08-07T11:36:24;99884.00;;;23.70
20103;BMP180;10210;52.284;9.892;2023-08-07T11:38:50;99897.00;;;23.70
20103;BMP180;10210;52.284;9.892;2023-08-07T11:41:18;99897.00;;;23.80
20103;BMP180;10210;52.284;9.892;2023-08-07T11:43:45;99890.00;;;23.70
20103;BMP180;10210;52.284;9.892;2023-08-07T11:46:14;99904.00;;;23.60
20103;BMP180;10210;52.284;9.892;2023-08-07T11:48:42;99913.00;;;23.50
20103;BMP180;10210;52.284;9.892;2023-08-07T11:51:08;99911.00;;;23.40
20103;BMP180;10210;52.284;9.892;2023-08-07T11:53:37;99920.00;;;23.30
20103;BMP180;10210;52.284;9.892;2023-08-07T11:56:13;99926.00;;;23.20
20103;BMP180;10210;52.284;9.892;2023-08-07T11:58:45;99926.00;;;23.10
20103;BMP180;10210;52.284;9.892;2023-08-07T12:01:16;99942.00;;;23.10
20103;BMP180;10210;52.284;9.892;2023-08-07T12:06:16;99947.00;;;22.90
20103;BMP180;10210;52.284;9.892;2023-08-07T12:08:42;99932.00;;;22.80
20103;BMP180;10210;52.284;9.892;2023-08-07T12:11:13;99939.00;;;22.70
20103;BMP180;10210;52.284;9.892;2023-08-07T12:13:41;99930.00;;;22.70
20103;BMP180;10210;52.284;9.892;2023-08-07T12:16:08;99933.00;;;22.70
20103;BMP180;10210;52.284;9.892;2023-08-07T12:18:36;99938.00;;;22.80
20103;BMP180;10210;52.284;9.892;2023-08-07T12:21:06;99936.00;;;22.80
20103;BMP180;10210;52.284;9.892;2023-08-07T12:23:36;99936.00;;;22.90
20103;BMP180;10210;52.284;9.892;2023-08-07T12:26:04;99955.00;;;23.00
20103;BMP180;10210;52.284;9.892;2023-08-07T12:28:34;99943.00;;;23.00
20103;BMP180;10210;52.284;9.892;2023-08-07T12:31:01;99952.00;;;23.20
20103;BMP180;10210;52.284;9.892;2023-08-07T12:33:28;99958.00;;;23.30
20103;BMP180;10210;52.284;9.892;2023-08-07T12:35:54;99945.00;;;23.40
20103;BMP180;10210;52.284;9.892;2023-08-07T12:38:19;99969.00;;;23.40
20103;BMP180;10210;52.284;9.892;2023-08-07T12:40:47;99990.00;;;23.30
20103;BMP180;10210;52.284;9.892;2023-08-07T12:43:12;100013.00;;;23.20
20103;BMP180;10210;52.284;9.892;2023-08-07T12:45:38;100011.00;;;23.00
20103;BMP180;10210;52.284;9.892;2023-08-07T12:48:04;100023.00;;;22.80
20103;BMP180;10210;52.284;9.892;2023-08-07T12:50:30;100018.00;;;22.70
20103;BMP180;10210;52.284;9.892;2023-08-07T12:52:56;100019.00;;;22.50
20103;BMP180;10210;52.284;9.892;2023-08-07T12:55:24;99992.00;;;22.40
20103;BMP180;10210;52.284;9.892;2023-08-07T12:57:52;99995.00;;;22.40
20103;BMP180;10210;52.284;9.892;2023-08-07T13:00:21;99982.00;;;22.40
20103;BMP180;10210;52.284;9.892;2023-08-07T13:02:49;100004.00;;;22.50
20103;BMP180;10210;52.284;9.892;2023-08-07T13:05:16;100004.00;;;22.50
20103;BMP180;10210;52.284;9.892;2023-08-07T13:07:44;99997.00;;;22.50
20103;BMP180;10210;52.284;9.892;2023-08-07T13:10:13;99999.00;;;22.40
20103;BMP180;10210;52.284;9.892;2023-08-07T13:12:47;100015.00;;;22.50
20103;BMP180;10210;52.284;9.892;2023-08-07T13:15:15;100016.00;;;22.50
20103;BMP180;10210;52.284;9.892;2023-08-07T13:17:43;100012.00;;;22.60
20103;BMP180;10210;52.284;9.892;2023-08-07T13:20:10;100016.00;;;22.70
20103;BMP180;10210;52.284;9.892;2023-08-07T13:22:44;100014.00;;;22.80
20103;BMP180;10210;52.284;9.892;2023-08-07T13:25:12;100008.00;;;22.90
20103;BMP180;10210;52.284;9.892;2023-08-07T13:27:38;100015.00;;;23.00
20103;BMP180;10210;52.284;9.892;2023-08-07T13:30:06;100010.00;;;23.00
20103;BMP180;10210;52.284;9.892;2023-08-07T13:32:35;100021.00;;;23.20
20103;BMP180;10210;52.284;9.892;2023-08-07T13:35:02;100027.00;;;23.20
20103;BMP180;10210;52.284;9.892;2023-08-07T13:37:28;100032.00;;;23.30
20103;BMP180;10210;52.284;9.892;2023-08-07T13:39:54;100038.00;;;23.30
20103;BMP180;10210;52.284;9.892;2023-08-07T13:42:24;100034.00;;;23.30
20103;BMP180;10210;52.284;9.892;2023-08-07T13:44:54;100041.00;;;23.30
20103;BMP180;10210;52.284;9.892;2023-08-07T13:47:21;100046.00;;;23.30
20103;BMP180;10210;52.284;9.892;2023-08-07T13:49:47;100043.00;;;23.20
20103;BMP180;10210;52.284;9.892;2023-08-07T13:52:13;100051.00;;;23.20
20103;BMP180;10210;52.284;9.892;2023-08-07T13:54:40;100053.00;;;23.20
20103;BMP180;10210;52.284;9.892;2023-08-07T13:57:07;100067.00;;;23.20
20103;BMP180;10210;52.284;9.892;2023-08-07T13:59:34;100062.00;;;23.20
20103;BMP180;10210;52.284;9.892;2023-08-07T14:01:59;100073.00;;;23.20
20103;BMP180;10210;52.284;9.892;2023-08-07T14:04:25;100078.00;;;23.20
20103;BMP180;10210;52.284;9.892;2023-08-07T14:06:52;100079.00;;;23.20
20103;BMP180;10210;52.284;9.892;2023-08-07T14:09:17;100082.00;;;23.20
20103;BMP180;10210;52.284;9.892;2023-08-07T14:11:47;100081.00;;;23.30
20103;BMP180;10210;52.284;9.892;2023-08-07T14:14:15;100067.00;;;23.30
20103;BMP180;10210;52.284;9.892;2023-08-07T14:16:40;100070.00;;;23.30